Time;durP1;ratioP1;P1;durP2;ratioP2;P2;SDS_P1;SDS_P2;PMS_P1;PMS_P2;Temp;Humidity;BMP_temperature;BMP_pressure;BME280_temperature;BME280_humidity;BME280_pressure;Samples;Min_cycle;Max_cycle;Signal;HPM_P1;HPM_P2
2022/07/27 00:01:07;;;;;;;;;;;25.70;42.30;;;;;;5051051;28;19919;-61
2022/07/27 00:03:33;;;;;;;;;;;25.80;42.40;;;;;;5052162;28;19952;-61
2022/07/27 00:05:58;;;;;;;;;;;25.80;42.40;;;;;;5053219;28;20406;-62
2022/07/27 00:08:24;;;;;;;;;;;25.80;42.40;;;;;;5051318;28;20356;-61
2022/07/27 00:10:49;;;;;;;;;;;25.80;42.40;;;;;;5052932;28;19917;-61
2022/07/27 00:13:15;;;;;;;;;;;25.80;42.30;;;;;;5051133;28;19925;-61
2022/07/27 00:15:40;;;;;;;;;;;25.80;42.20;;;;;;5053544;28;19915;-61
2022/07/27 00:18:06;;;;;;;;;;;25.80;42.30;;;;;;5052453;28;19917;-61
2022/07/27 00:20:31;;;;;;;;;;;25.80;42.30;;;;;;5051828;28;19962;-61
2022/07/27 00:22:57;;;;;;;;;;;25.80;42.20;;;;;;5050026;28;20011;-62
2022/07/27 00:25:22;;;;;;;;;;;25.70;42.40;;;;;;5052894;28;19913;-61
2022/07/27 00:27:48;;;;;;;;;;;25.80;42.30;;;;;;5049028;28;19913;-62
2022/07/27 00:30:13;;;;;;;;;;;25.80;42.30;;;;;;5053432;28;19909;-62
2022/07/27 00:32:39;;;;;;;;;;;25.80;42.10;;;;;;5048424;28;19975;-62
2022/07/27 00:35:05;;;;;;;;;;;25.70;42.10;;;;;;5053222;28;19917;-61
2022/07/27 00:37:31;;;;;;;;;;;25.70;41.90;;;;;;5049750;28;19924;-61
2022/07/27 00:39:56;;;;;;;;;;;25.70;41.90;;;;;;5054325;28;19915;-62
2022/07/27 00:42:26;;;;;;;;;;;25.70;41.90;;;;;;5051032;28;19998;-62
2022/07/27 00:44:55;;;;;;;;;;;25.70;41.80;;;;;;5054225;28;20467;-61
2022/07/27 00:47:20;;;;;;;;;;;25.60;41.80;;;;;;5053445;28;20296;-62
2022/07/27 00:49:46;;;;;;;;;;;25.70;41.90;;;;;;5050933;28;19920;-61
2022/07/27 00:52:12;;;;;;;;;;;25.60;41.80;;;;;;5051442;28;19913;-62
2022/07/27 00:54:37;;;;;;;;;;;25.60;41.80;;;;;;5051477;28;19913;-62
2022/07/27 00:57:03;;;;;;;;;;;25.70;41.60;;;;;;5028037;28;20336;-61
2022/07/27 00:59:28;;;;;;;;;;;25.60;41.60;;;;;;5034116;28;19909;-61
2022/07/27 01:01:54;;;;;;;;;;;25.70;41.60;;;;;;5040859;28;19920;-61
2022/07/27 01:04:19;;;;;;;;;;;25.60;41.40;;;;;;5051324;28;19917;-61
2022/07/27 01:06:44;;;;;;;;;;;25.70;41.40;;;;;;5050399;28;19927;-61
2022/07/27 01:11:54;;;;;;;;;;;25.60;41.40;;;;;;5050920;28;20023;-61
2022/07/27 01:14:20;;;;;;;;;;;25.60;41.50;;;;;;5053654;28;19952;-61
2022/07/27 01:16:46;;;;;;;;;;;25.60;41.50;;;;;;5053239;28;19948;-61
2022/07/27 01:19:11;;;;;;;;;;;25.60;41.50;;;;;;5040917;28;20377;-61
2022/07/27 01:21:37;;;;;;;;;;;25.60;41.40;;;;;;5041940;28;19975;-62
2022/07/27 01:24:02;;;;;;;;;;;25.60;41.40;;;;;;5049642;28;20019;-62
2022/07/27 01:26:28;;;;;;;;;;;25.60;41.40;;;;;;5046308;28;19927;-61
2022/07/27 01:28:57;;;;;;;;;;;25.60;41.50;;;;;;5050358;28;19943;-61
2022/07/27 01:31:22;;;;;;;;;;;25.60;41.60;;;;;;5031678;28;19913;-61
2022/07/27 01:33:48;;;;;;;;;;;25.60;41.70;;;;;;5052779;28;20003;-61
2022/07/27 01:36:13;;;;;;;;;;;25.50;41.80;;;;;;5052236;28;19921;-61
2022/07/27 01:38:38;;;;;;;;;;;25.50;41.90;;;;;;5049850;28;19955;-62
2022/07/27 01:41:04;;;;;;;;;;;25.50;41.90;;;;;;5048622;28;20530;-61
2022/07/27 01:43:29;;;;;;;;;;;25.60;42.00;;;;;;5052025;28;19912;-61
2022/07/27 01:45:55;;;;;;;;;;;25.60;42.00;;;;;;5050584;28;19913;-61
2022/07/27 01:48:20;;;;;;;;;;;25.50;41.80;;;;;;5048272;28;19913;-61
2022/07/27 01:50:46;;;;;;;;;;;25.50;41.90;;;;;;5051884;28;19913;-62
2022/07/27 01:53:12;;;;;;;;;;;25.50;42.00;;;;;;5051484;28;20047;-61
2022/07/27 01:55:37;;;;;;;;;;;25.50;41.90;;;;;;5046505;28;20066;-61
2022/07/27 01:58:06;;;;;;;;;;;25.50;42.10;;;;;;5046824;28;20419;-62
2022/07/27 02:00:31;;;;;;;;;;;25.40;42.30;;;;;;5046820;28;19908;-61
2022/07/27 02:02:57;;;;;;;;;;;25.30;42.30;;;;;;5047740;28;19913;-61
2022/07/27 02:05:22;;;;;;;;;;;25.30;42.50;;;;;;5032648;28;19919;-62
2022/07/27 02:07:48;;;;;;;;;;;25.30;42.60;;;;;;5047738;28;20016;-61
2022/07/27 02:10:13;;;;;;;;;;;25.30;42.50;;;;;;5032109;28;19949;-61
2022/07/27 02:12:39;;;;;;;;;;;25.30;42.50;;;;;;5052093;28;19971;-61
2022/07/27 02:15:05;;;;;;;;;;;25.30;42.70;;;;;;5050546;28;19920;-61
2022/07/27 02:17:30;;;;;;;;;;;25.30;42.70;;;;;;5048426;28;20003;-61
2022/07/27 02:19:56;;;;;;;;;;;25.30;42.80;;;;;;5047350;28;19959;-61
2022/07/27 02:22:21;;;;;;;;;;;25.30;42.80;;;;;;5043469;28;19913;-62
2022/07/27 02:24:47;;;;;;;;;;;25.30;42.90;;;;;;5049974;28;19917;-61
2022/07/27 02:27:13;;;;;;;;;;;25.30;42.80;;;;;;5049085;28;19964;-61
2022/07/27 02:29:38;;;;;;;;;;;25.30;42.90;;;;;;5050905;28;19916;-61
2022/07/27 02:32:04;;;;;;;;;;;25.30;42.90;;;;;;5050872;28;20350;-61
2022/07/27 02:34:29;;;;;;;;;;;25.30;42.90;;;;;;5050854;28;19974;-62
2022/07/27 02:36:54;;;;;;;;;;;25.30;42.90;;;;;;5032114;28;19916;-62
2022/07/27 02:39:20;;;;;;;;;;;25.30;42.90;;;;;;5051586;28;20050;-61
2022/07/27 02:41:46;;;;;;;;;;;25.30;43.00;;;;;;5032726;28;19963;-62
2022/07/27 02:44:13;;;;;;;;;;;25.30;43.00;;;;;;5049732;28;20007;-62
2022/07/27 02:46:39;;;;;;;;;;;25.30;42.90;;;;;;5049608;28;20304;-61
2022/07/27 02:49:04;;;;;;;;;;;25.30;43.00;;;;;;5049444;28;19913;-61
2022/07/27 02:51:30;;;;;;;;;;;25.30;43.00;;;;;;5051410;28;19913;-62
2022/07/27 02:53:55;;;;;;;;;;;25.30;43.10;;;;;;5048650;28;19913;-61
2022/07/27 02:56:21;;;;;;;;;;;25.20;43.20;;;;;;5052039;28;19963;-61
2022/07/27 02:58:46;;;;;;;;;;;25.20;43.20;;;;;;5049602;28;19939;-61
2022/07/27 03:01:11;;;;;;;;;;;25.20;43.20;;;;;;5050804;28;19927;-61
2022/07/27 03:03:37;;;;;;;;;;;25.10;43.20;;;;;;5050898;28;20387;-61
2022/07/27 03:06:06;;;;;;;;;;;25.10;43.20;;;;;;5050606;28;20456;-61
2022/07/27 03:08:31;;;;;;;;;;;25.10;43.20;;;;;;5047677;28;19913;-62
2022/07/27 03:10:56;;;;;;;;;;;25.10;43.20;;;;;;5049928;28;19913;-61
2022/07/27 03:13:22;;;;;;;;;;;25.10;43.20;;;;;;5051592;28;19921;-62
2022/07/27 03:15:48;;;;;;;;;;;25.10;43.10;;;;;;5051376;28;20080;-61
2022/07/27 03:18:13;;;;;;;;;;;25.10;43.00;;;;;;5049913;28;19928;-61
2022/07/27 03:20:38;;;;;;;;;;;25.20;43.00;;;;;;5049390;28;19924;-62
2022/07/27 03:23:04;;;;;;;;;;;25.10;43.00;;;;;;5046093;28;19913;-62
2022/07/27 03:25:29;;;;;;;;;;;25.10;43.10;;;;;;5049452;28;19913;-62
2022/07/27 03:27:55;;;;;;;;;;;25.10;43.20;;;;;;5048301;28;19942;-61
2022/07/27 03:30:20;;;;;;;;;;;25.10;43.20;;;;;;5047159;28;19979;-61
2022/07/27 03:32:47;;;;;;;;;;;25.10;43.20;;;;;;5030967;28;19952;-61
2022/07/27 03:35:12;;;;;;;;;;;25.10;43.20;;;;;;5050338;28;19920;-61
2022/07/27 03:37:38;;;;;;;;;;;25.10;43.20;;;;;;5044967;28;19971;-62
2022/07/27 03:40:03;;;;;;;;;;;25.10;43.20;;;;;;5049974;28;20290;-62
2022/07/27 03:42:29;;;;;;;;;;;25.10;43.20;;;;;;5049130;28;19958;-61
2022/07/27 03:44:54;;;;;;;;;;;25.00;43.20;;;;;;5044564;28;19914;-61
2022/07/27 03:47:20;;;;;;;;;;;25.00;43.30;;;;;;5036518;28;20443;-61
2022/07/27 03:49:46;;;;;;;;;;;25.00;43.30;;;;;;5048033;28;20230;-61
2022/07/27 03:52:12;;;;;;;;;;;25.00;43.20;;;;;;5048014;28;19960;-62
2022/07/27 03:54:38;;;;;;;;;;;25.00;43.20;;;;;;5050776;28;19916;-61
2022/07/27 03:57:03;;;;;;;;;;;24.90;43.40;;;;;;5047981;28;19928;-61
2022/07/27 03:59:28;;;;;;;;;;;24.80;43.20;;;;;;5051198;28;20007;-62
2022/07/27 04:01:54;;;;;;;;;;;24.90;43.40;;;;;;5052991;28;19913;-61
2022/07/27 04:04:19;;;;;;;;;;;24.90;43.30;;;;;;5051111;28;19935;-62
2022/07/27 04:06:45;;;;;;;;;;;24.90;43.40;;;;;;5051996;28;19912;-62
2022/07/27 04:09:10;;;;;;;;;;;24.90;43.40;;;;;;5053377;28;19913;-62
2022/07/27 04:11:36;;;;;;;;;;;24.90;43.40;;;;;;5052529;28;19912;-61
2022/07/27 04:14:01;;;;;;;;;;;24.90;43.40;;;;;;5052358;28;19921;-62
2022/07/27 04:16:27;;;;;;;;;;;24.90;43.40;;;;;;5054058;28;20425;-62
2022/07/27 04:18:54;;;;;;;;;;;24.90;43.40;;;;;;5050525;28;21484;-62
2022/07/27 04:21:19;;;;;;;;;;;24.80;43.50;;;;;;5052258;28;19996;-62
2022/07/27 04:23:45;;;;;;;;;;;24.90;43.60;;;;;;5051773;28;20361;-62
2022/07/27 04:26:10;;;;;;;;;;;24.80;43.60;;;;;;5054457;28;20369;-61
2022/07/27 04:28:36;;;;;;;;;;;24.70;43.60;;;;;;5054654;28;20357;-62
2022/07/27 04:31:01;;;;;;;;;;;24.70;43.60;;;;;;5054125;28;20351;-62
2022/07/27 04:33:26;;;;;;;;;;;24.70;43.60;;;;;;5053071;28;19913;-61
2022/07/27 04:35:52;;;;;;;;;;;24.70;43.60;;;;;;5052282;28;19916;-61
2022/07/27 04:38:18;;;;;;;;;;;24.70;43.50;;;;;;5034105;28;19917;-61
2022/07/27 04:40:43;;;;;;;;;;;24.70;43.60;;;;;;5034538;28;19917;-61
2022/07/27 04:43:08;;;;;;;;;;;24.70;43.60;;;;;;5051178;28;19917;-62
2022/07/27 04:45:34;;;;;;;;;;;24.80;43.50;;;;;;5051679;28;20400;-61
2022/07/27 04:48:03;;;;;;;;;;;24.70;43.50;;;;;;5036121;28;20268;-62
2022/07/27 04:50:29;;;;;;;;;;;24.70;43.50;;;;;;5050827;28;19921;-61
2022/07/27 04:52:54;;;;;;;;;;;24.70;43.50;;;;;;5029747;28;20035;-61
2022/07/27 04:55:20;;;;;;;;;;;24.70;43.40;;;;;;5051291;28;19919;-62
2022/07/27 04:57:45;;;;;;;;;;;24.60;43.50;;;;;;5050837;28;19912;-62
2022/07/27 05:00:11;;;;;;;;;;;24.60;43.60;;;;;;5053424;28;20327;-62
2022/07/27 05:02:39;;;;;;;;;;;24.50;43.60;;;;;;5054014;28;20295;-62
2022/07/27 05:05:05;;;;;;;;;;;24.50;43.60;;;;;;5050450;28;19913;-61
2022/07/27 05:07:31;;;;;;;;;;;24.40;43.80;;;;;;5050952;28;19927;-62
2022/07/27 05:09:56;;;;;;;;;;;24.50;43.80;;;;;;5046143;28;19999;-62
2022/07/27 05:12:22;;;;;;;;;;;24.50;43.70;;;;;;5048794;28;19920;-62
2022/07/27 05:14:47;;;;;;;;;;;24.50;43.50;;;;;;5051719;28;19913;-62
2022/07/27 05:17:13;;;;;;;;;;;24.50;43.50;;;;;;5052701;28;19927;-61
2022/07/27 05:19:38;;;;;;;;;;;24.60;43.60;;;;;;5051114;28;19970;-62
2022/07/27 05:22:04;;;;;;;;;;;24.50;43.50;;;;;;5053032;28;19920;-62
2022/07/27 05:24:29;;;;;;;;;;;24.50;43.60;;;;;;5049517;28;19909;-61
2022/07/27 05:26:55;;;;;;;;;;;24.60;43.60;;;;;;5050813;28;19970;-61
2022/07/27 05:29:20;;;;;;;;;;;24.50;43.60;;;;;;5051713;28;19920;-61
2022/07/27 05:31:46;;;;;;;;;;;24.50;43.70;;;;;;5048092;28;19913;-62
2022/07/27 05:34:11;;;;;;;;;;;24.50;43.70;;;;;;5051899;28;19909;-61
2022/07/27 05:36:37;;;;;;;;;;;24.50;43.70;;;;;;5050921;28;19912;-62
2022/07/27 05:39:02;;;;;;;;;;;24.50;43.80;;;;;;5050755;28;19909;-62
2022/07/27 05:41:27;;;;;;;;;;;24.50;43.80;;;;;;5031709;28;19964;-62
2022/07/27 05:43:53;;;;;;;;;;;24.50;43.80;;;;;;5036698;28;19916;-62
2022/07/27 05:46:19;;;;;;;;;;;24.50;43.80;;;;;;5050622;28;20011;-62
2022/07/27 05:48:45;;;;;;;;;;;24.50;43.90;;;;;;5051899;28;20031;-61
2022/07/27 05:51:10;;;;;;;;;;;24.50;43.90;;;;;;5047633;28;20003;-62
2022/07/27 05:53:36;;;;;;;;;;;24.50;44.00;;;;;;5048396;28;19913;-62
2022/07/27 05:56:01;;;;;;;;;;;24.50;43.90;;;;;;5046195;28;19945;-62
2022/07/27 05:58:28;;;;;;;;;;;24.50;44.00;;;;;;5047078;28;20396;-62
2022/07/27 06:00:53;;;;;;;;;;;24.50;44.10;;;;;;5049990;28;19931;-61
2022/07/27 06:03:19;;;;;;;;;;;24.50;44.10;;;;;;5052588;28;19912;-61
2022/07/27 06:05:44;;;;;;;;;;;24.40;44.40;;;;;;5047743;28;19924;-62
2022/07/27 06:08:10;;;;;;;;;;;24.40;44.30;;;;;;5050568;28;19913;-61
2022/07/27 06:10:35;;;;;;;;;;;24.50;44.30;;;;;;5052808;28;19915;-62
2022/07/27 06:13:02;;;;;;;;;;;24.40;44.30;;;;;;5047766;28;19920;-62
2022/07/27 06:15:27;;;;;;;;;;;24.50;44.30;;;;;;5031494;28;20000;-62
2022/07/27 06:17:52;;;;;;;;;;;24.50;44.40;;;;;;5037759;28;19955;-62
2022/07/27 06:20:19;;;;;;;;;;;24.50;44.20;;;;;;5051272;28;20299;-62
2022/07/27 06:22:45;;;;;;;;;;;24.50;44.30;;;;;;5051378;28;20292;-62
2022/07/27 06:25:11;;;;;;;;;;;24.50;44.30;;;;;;5051227;28;20476;-62
2022/07/27 06:27:36;;;;;;;;;;;24.50;44.30;;;;;;5050770;28;20004;-62
2022/07/27 06:30:05;;;;;;;;;;;24.50;44.50;;;;;;5048963;28;20071;-62
2022/07/27 06:32:30;;;;;;;;;;;24.50;44.40;;;;;;5050124;28;19970;-62
2022/07/27 06:34:56;;;;;;;;;;;24.60;44.50;;;;;;5043813;28;20008;-62
2022/07/27 06:37:21;;;;;;;;;;;24.60;44.40;;;;;;5047291;28;19916;-62
2022/07/27 06:39:47;;;;;;;;;;;24.60;44.20;;;;;;5047706;28;19919;-61
2022/07/27 06:42:13;;;;;;;;;;;24.60;44.20;;;;;;5047730;28;19919;-61
2022/07/27 06:44:39;;;;;;;;;;;24.60;44.30;;;;;;5049952;28;20670;-62
2022/07/27 06:47:04;;;;;;;;;;;24.60;44.30;;;;;;5045112;28;19987;-62
2022/07/27 06:49:30;;;;;;;;;;;24.50;44.30;;;;;;5043613;28;20425;-62
2022/07/27 06:51:55;;;;;;;;;;;24.50;44.30;;;;;;5037613;28;19908;-62
2022/07/27 06:54:21;;;;;;;;;;;24.40;44.30;;;;;;5049967;28;19978;-62
2022/07/27 06:56:46;;;;;;;;;;;24.40;44.40;;;;;;5047233;28;19909;-61
2022/07/27 06:59:12;;;;;;;;;;;24.30;44.20;;;;;;5046987;28;20014;-62
2022/07/27 07:01:37;;;;;;;;;;;24.40;44.20;;;;;;5050857;28;20383;-62
2022/07/27 07:04:03;;;;;;;;;;;24.40;44.10;;;;;;5048452;28;20407;-62
2022/07/27 07:06:28;;;;;;;;;;;24.30;44.10;;;;;;5051512;28;20269;-61
2022/07/27 07:08:54;;;;;;;;;;;24.30;44.30;;;;;;5050053;28;19923;-62
2022/07/27 07:11:19;;;;;;;;;;;24.30;44.10;;;;;;5050598;28;19909;-61
2022/07/27 07:13:45;;;;;;;;;;;24.30;44.10;;;;;;5048203;28;20393;-62
2022/07/27 07:16:11;;;;;;;;;;;24.30;44.20;;;;;;5043689;28;20360;-62
2022/07/27 07:18:36;;;;;;;;;;;24.20;44.30;;;;;;5049830;28;19921;-62
2022/07/27 07:21:02;;;;;;;;;;;24.30;44.40;;;;;;5047368;28;19920;-62
2022/07/27 07:23:27;;;;;;;;;;;24.30;44.30;;;;;;5044204;28;19921;-62
2022/07/27 07:25:52;;;;;;;;;;;24.30;44.90;;;;;;5048706;28;19913;-62
2022/07/27 07:28:20;;;;;;;;;;;24.30;44.30;;;;;;5040068;28;19921;-62
2022/07/27 07:30:46;;;;;;;;;;;24.30;44.40;;;;;;5046298;28;19913;-62
2022/07/27 07:33:12;;;;;;;;;;;24.30;44.50;;;;;;5039005;28;19913;-63
2022/07/27 07:35:37;;;;;;;;;;;24.30;44.30;;;;;;5049661;28;19917;-62
2022/07/27 07:38:03;;;;;;;;;;;24.30;44.40;;;;;;5039686;28;19917;-62
2022/07/27 07:40:28;;;;;;;;;;;24.30;44.60;;;;;;5048666;28;19916;-61
2022/07/27 07:42:55;;;;;;;;;;;24.30;44.70;;;;;;5047415;28;19916;-62
2022/07/27 07:45:20;;;;;;;;;;;24.30;44.60;;;;;;5055236;28;19982;-60
2022/07/27 07:47:46;;;;;;;;;;;24.30;44.70;;;;;;5054220;28;19924;-60
2022/07/27 07:50:11;;;;;;;;;;;24.30;44.80;;;;;;5050398;28;19924;-61
2022/07/27 07:52:37;;;;;;;;;;;24.20;44.90;;;;;;5055224;28;19913;-62
2022/07/27 07:55:03;;;;;;;;;;;24.20;45.00;;;;;;5050924;28;20384;-61
2022/07/27 07:57:28;;;;;;;;;;;24.10;45.00;;;;;;5050649;28;20394;-61
2022/07/27 07:59:53;;;;;;;;;;;24.10;45.30;;;;;;5051981;28;19921;-62
2022/07/27 08:02:20;;;;;;;;;;;24.10;45.20;;;;;;5053175;28;19916;-61
2022/07/27 08:04:46;;;;;;;;;;;24.10;45.20;;;;;;5051567;28;19917;-62
2022/07/27 08:07:11;;;;;;;;;;;24.00;45.10;;;;;;5046608;28;19978;-60
2022/07/27 08:09:37;;;;;;;;;;;24.10;45.20;;;;;;5052684;28;19924;-62
2022/07/27 08:12:02;;;;;;;;;;;24.10;45.80;;;;;;5056817;28;19917;-62
2022/07/27 08:14:27;;;;;;;;;;;24.20;44.90;;;;;;5052565;28;19921;-62
2022/07/27 08:16:53;;;;;;;;;;;24.20;44.80;;;;;;5052479;28;19966;-62
2022/07/27 08:19:18;;;;;;;;;;;24.20;44.80;;;;;;5051375;28;19968;-62
2022/07/27 08:21:44;;;;;;;;;;;24.30;44.50;;;;;;5052035;28;19927;-62
2022/07/27 08:24:09;;;;;;;;;;;24.30;44.30;;;;;;5050424;28;19940;-61
2022/07/27 08:26:35;;;;;;;;;;;24.40;44.30;;;;;;5048964;28;19979;-62
2022/07/27 08:29:00;;;;;;;;;;;24.40;44.10;;;;;;5048271;28;19917;-61
2022/07/27 08:31:26;;;;;;;;;;;24.50;44.00;;;;;;5048840;28;20111;-62
2022/07/27 08:33:51;;;;;;;;;;;24.50;44.00;;;;;;5045696;28;19913;-61
2022/07/27 08:36:17;;;;;;;;;;;24.50;44.00;;;;;;5048632;28;20031;-63
2022/07/27 08:38:43;;;;;;;;;;;24.50;43.60;;;;;;5046624;28;19923;-62
2022/07/27 08:41:09;;;;;;;;;;;24.60;43.60;;;;;;5049958;28;19967;-62
2022/07/27 08:43:34;;;;;;;;;;;24.70;43.60;;;;;;5050902;28;19943;-63
2022/07/27 08:46:00;;;;;;;;;;;24.60;43.50;;;;;;5048970;28;20373;-63
2022/07/27 08:48:26;;;;;;;;;;;24.60;43.40;;;;;;5041920;28;20439;-63
2022/07/27 08:50:52;;;;;;;;;;;24.60;44.10;;;;;;5060891;28;19958;-60
2022/07/27 08:53:18;;;;;;;;;;;24.60;43.40;;;;;;5041560;28;19917;-61
2022/07/27 08:55:44;;;;;;;;;;;24.60;43.30;;;;;;5048543;28;20521;-62
2022/07/27 08:58:10;;;;;;;;;;;24.60;43.30;;;;;;5047329;28;19913;-61
2022/07/27 09:00:37;;;;;;;;;;;24.60;43.40;;;;;;5048681;28;20323;-62
2022/07/27 09:03:02;;;;;;;;;;;24.60;43.30;;;;;;5063449;28;20321;-62
2022/07/27 09:05:27;;;;;;;;;;;24.60;43.30;;;;;;5046652;28;20015;-62
2022/07/27 09:07:53;;;;;;;;;;;24.60;43.10;;;;;;5049986;28;19917;-62
2022/07/27 09:10:28;;;;;;;;;;;24.60;42.90;;;;;;5051270;28;20373;-62
2022/07/27 09:12:54;;;;;;;;;;;24.50;42.80;;;;;;5049682;28;19929;-62
2022/07/27 09:15:19;;;;;;;;;;;24.50;42.80;;;;;;5050008;28;20379;-62
2022/07/27 09:17:45;;;;;;;;;;;24.40;42.80;;;;;;5050854;28;20387;-62
2022/07/27 09:20:15;;;;;;;;;;;24.40;42.60;;;;;;5041556;28;19913;-62
2022/07/27 09:22:51;;;;;;;;;;;24.50;42.60;;;;;;5065060;28;20083;-62
2022/07/27 09:25:20;;;;;;;;;;;24.50;42.60;;;;;;5050636;28;19921;-62
2022/07/27 09:27:48;;;;;;;;;;;24.50;42.20;;;;;;5045798;28;19916;-62
2022/07/27 09:30:14;;;;;;;;;;;24.60;42.00;;;;;;5045334;28;19995;-62
2022/07/27 09:32:58;;;;;;;;;;;24.60;41.80;;;;;;5042352;28;19912;-67
2022/07/27 09:35:25;;;;;;;;;;;24.60;41.90;;;;;;5049368;28;19921;-62
2022/07/27 09:37:51;;;;;;;;;;;24.50;41.80;;;;;;5048403;28;19916;-62
2022/07/27 09:40:20;;;;;;;;;;;24.40;42.00;;;;;;5044734;28;19920;-61
2022/07/27 09:42:45;;;;;;;;;;;24.40;41.90;;;;;;5047376;28;19917;-61
2022/07/27 09:45:30;;;;;;;;;;;24.30;41.90;;;;;;5049562;28;19919;-62
2022/07/27 09:48:16;;;;;;;;;;;24.30;41.70;;;;;;5043764;28;20377;-62
2022/07/27 09:50:43;;;;;;;;;;;24.30;41.50;;;;;;5053930;28;19917;-62
2022/07/27 09:53:14;;;;;;;;;;;24.50;41.20;;;;;;5039808;28;20451;-61
2022/07/27 09:55:41;;;;;;;;;;;24.60;41.10;;;;;;5049342;28;19982;-61
2022/07/27 09:58:06;;;;;;;;;;;24.70;40.80;;;;;;5048057;28;19919;-62
2022/07/27 10:00:32;;;;;;;;;;;24.70;40.60;;;;;;5048636;28;19913;-62
2022/07/27 10:02:58;;;;;;;;;;;24.70;41.40;;;;;;5041864;28;20278;-62
2022/07/27 10:05:23;;;;;;;;;;;24.70;40.70;;;;;;5039070;28;19931;-62
2022/07/27 10:07:49;;;;;;;;;;;24.60;40.50;;;;;;5027438;28;20442;-62
2022/07/27 10:10:15;;;;;;;;;;;24.50;40.40;;;;;;5052391;28;19919;-62
2022/07/27 10:12:43;;;;;;;;;;;24.40;40.30;;;;;;5045503;28;20327;-62
2022/07/27 10:15:11;;;;;;;;;;;24.40;40.30;;;;;;5039692;28;20340;-62
2022/07/27 10:17:37;;;;;;;;;;;24.50;40.00;;;;;;5047391;28;19912;-62
2022/07/27 10:20:07;;;;;;;;;;;24.50;40.00;;;;;;5042834;28;19913;-62
2022/07/27 10:22:51;;;;;;;;;;;24.50;40.00;;;;;;5034233;28;20661;-62
2022/07/27 10:25:17;;;;;;;;;;;24.30;40.30;;;;;;5039810;28;19994;-62
2022/07/27 10:27:44;;;;;;;;;;;24.30;40.30;;;;;;5041762;28;20381;-62
2022/07/27 10:30:10;;;;;;;;;;;24.40;40.30;;;;;;5042585;28;19917;-62
2022/07/27 10:32:36;;;;;;;;;;;24.50;40.30;;;;;;5062896;28;19919;-62
2022/07/27 10:35:01;;;;;;;;;;;24.50;40.50;;;;;;5034479;28;19913;-63
2022/07/27 10:37:27;;;;;;;;;;;24.50;40.40;;;;;;5042929;28;20426;-62
2022/07/27 10:42:38;;;;;;;;;;;24.50;40.70;;;;;;5035337;28;19921;-62
2022/07/27 10:45:11;;;;;;;;;;;24.50;40.80;;;;;;5035501;28;20027;-62
2022/07/27 10:47:40;;;;;;;;;;;24.50;40.90;;;;;;5057566;28;19917;-62
2022/07/27 10:50:18;;;;;;;;;;;24.50;40.70;;;;;;5043631;28;20410;-62
2022/07/27 10:52:54;;;;;;;;;;;24.50;40.60;;;;;;5042650;28;20445;-62
2022/07/27 10:55:29;;;;;;;;;;;24.50;40.70;;;;;;5043890;28;19945;-62
2022/07/27 10:57:55;;;;;;;;;;;24.40;40.80;;;;;;5045183;28;20063;-62
2022/07/27 11:00:21;;;;;;;;;;;24.30;40.90;;;;;;5042147;28;20005;-62
2022/07/27 11:02:46;;;;;;;;;;;24.30;40.80;;;;;;5045900;28;19919;-62
2022/07/27 11:05:12;;;;;;;;;;;24.40;40.60;;;;;;5039499;28;19965;-62
2022/07/27 11:07:37;;;;;;;;;;;24.50;40.30;;;;;;5033947;28;19943;-62
2022/07/27 11:10:03;;;;;;;;;;;24.50;40.20;;;;;;5031579;28;19936;-62
2022/07/27 11:12:28;;;;;;;;;;;24.60;39.90;;;;;;5048081;28;19924;-62
2022/07/27 11:14:54;;;;;;;;;;;24.60;39.80;;;;;;5042945;28;20343;-62
2022/07/27 11:17:21;;;;;;;;;;;24.70;39.60;;;;;;5065604;28;19919;-62
2022/07/27 11:19:52;;;;;;;;;;;24.70;39.40;;;;;;5044698;28;19982;-62
2022/07/27 11:22:27;;;;;;;;;;;24.70;39.20;;;;;;5043575;28;19921;-62
2022/07/27 11:24:53;;;;;;;;;;;24.70;39.20;;;;;;5068050;28;19927;-62
2022/07/27 11:27:18;;;;;;;;;;;24.70;39.00;;;;;;5055893;28;20351;-62
2022/07/27 11:29:44;;;;;;;;;;;24.70;38.90;;;;;;5039037;28;20353;-62
2022/07/27 11:32:15;;;;;;;;;;;24.70;38.80;;;;;;5042212;28;19920;-62
2022/07/27 11:34:41;;;;;;;;;;;24.70;38.70;;;;;;5047817;28;19913;-62
2022/07/27 11:37:11;;;;;;;;;;;24.80;38.70;;;;;;5052949;28;20058;-61
2022/07/27 11:39:36;;;;;;;;;;;24.80;38.80;;;;;;5055815;28;19917;-62
2022/07/27 11:42:02;;;;;;;;;;;24.80;38.80;;;;;;5052733;28;19913;-61
2022/07/27 11:44:28;;;;;;;;;;;24.80;39.00;;;;;;5048210;28;19917;-62
2022/07/27 11:46:54;;;;;;;;;;;24.70;39.20;;;;;;5049693;28;19920;-62
2022/07/27 11:49:29;;;;;;;;;;;24.70;39.40;;;;;;5046810;28;19913;-62
2022/07/27 11:51:56;;;;;;;;;;;24.80;39.60;;;;;;5067663;28;20270;-61
2022/07/27 11:54:28;;;;;;;;;;;24.90;39.70;;;;;;5046073;28;19924;-61
2022/07/27 11:56:58;;;;;;;;;;;24.80;39.70;;;;;;5050565;28;19917;-62
2022/07/27 11:59:25;;;;;;;;;;;24.80;39.80;;;;;;5050168;28;19912;-61
2022/07/27 12:01:51;;;;;;;;;;;24.80;39.90;;;;;;5052018;28;20316;-62
2022/07/27 12:04:21;;;;;;;;;;;24.80;39.70;;;;;;5051532;28;19988;-62
2022/07/27 12:06:48;;;;;;;;;;;24.70;39.80;;;;;;5051602;28;19924;-62
2022/07/27 12:09:14;;;;;;;;;;;24.60;39.90;;;;;;5062214;28;19912;-62
2022/07/27 12:11:44;;;;;;;;;;;24.70;39.70;;;;;;5052543;28;19913;-62
2022/07/27 12:14:13;;;;;;;;;;;24.70;39.70;;;;;;5053877;28;19917;-62
2022/07/27 12:16:39;;;;;;;;;;;24.70;39.60;;;;;;5049473;28;20447;-62
2022/07/27 12:19:04;;;;;;;;;;;24.80;39.60;;;;;;5052713;28;19913;-61
2022/07/27 12:21:29;;;;;;;;;;;24.80;39.70;;;;;;5051787;28;19995;-61
2022/07/27 12:23:56;;;;;;;;;;;24.70;39.60;;;;;;5051675;28;19920;-62
2022/07/27 12:26:24;;;;;;;;;;;24.80;39.60;;;;;;5044781;28;19924;-62
2022/07/27 12:29:09;;;;;;;;;;;24.90;39.70;;;;;;5048956;28;20300;-62
2022/07/27 12:31:34;;;;;;;;;;;24.90;39.70;;;;;;5052484;28;20416;-62
2022/07/27 12:34:01;;;;;;;;;;;24.80;39.90;;;;;;5049847;28;19967;-61
2022/07/27 12:36:27;;;;;;;;;;;24.80;39.80;;;;;;5050022;28;20372;-62
2022/07/27 12:38:52;;;;;;;;;;;24.90;39.80;;;;;;5046955;28;19913;-62
2022/07/27 12:41:25;;;;;;;;;;;25.00;39.90;;;;;;5052450;28;19913;-62
2022/07/27 12:44:03;;;;;;;;;;;25.00;39.90;;;;;;5050959;28;20381;-63
2022/07/27 12:46:28;;;;;;;;;;;24.90;40.00;;;;;;5050853;28;20000;-62
2022/07/27 12:48:54;;;;;;;;;;;24.90;40.20;;;;;;5050588;28;19960;-62
2022/07/27 12:51:20;;;;;;;;;;;24.90;40.30;;;;;;5058540;28;20368;-63
2022/07/27 12:53:46;;;;;;;;;;;24.90;40.30;;;;;;5044234;28;20558;-63
2022/07/27 12:56:11;;;;;;;;;;;24.90;40.20;;;;;;5047000;28;19959;-62
2022/07/27 12:58:37;;;;;;;;;;;24.90;40.30;;;;;;5047818;28;20380;-62
2022/07/27 13:01:02;;;;;;;;;;;24.90;40.40;;;;;;5051849;28;20369;-66
2022/07/27 13:03:28;;;;;;;;;;;24.90;40.30;;;;;;5049756;28;19921;-62
2022/07/27 13:05:54;;;;;;;;;;;25.00;40.30;;;;;;5050132;28;19921;-63
2022/07/27 13:08:19;;;;;;;;;;;25.00;40.30;;;;;;5050604;28;19924;-63
2022/07/27 13:10:46;;;;;;;;;;;24.90;40.40;;;;;;5048836;28;19923;-63
2022/07/27 13:13:12;;;;;;;;;;;24.90;40.40;;;;;;5050770;28;19921;-62
2022/07/27 13:15:37;;;;;;;;;;;25.00;40.20;;;;;;5050855;28;19991;-62
2022/07/27 13:18:03;;;;;;;;;;;24.90;40.40;;;;;;5049416;28;19939;-63
2022/07/27 13:20:28;;;;;;;;;;;24.90;40.30;;;;;;5050143;28;19924;-62
2022/07/27 13:22:54;;;;;;;;;;;24.90;40.40;;;;;;5050490;28;19921;-63
2022/07/27 13:25:19;;;;;;;;;;;24.90;40.30;;;;;;5028454;28;19913;-62
2022/07/27 13:27:45;;;;;;;;;;;25.00;40.30;;;;;;5049257;28;19920;-63
2022/07/27 13:30:12;;;;;;;;;;;25.00;40.10;;;;;;5049103;28;19913;-63
2022/07/27 13:32:37;;;;;;;;;;;24.90;40.50;;;;;;5047477;28;19916;-63
2022/07/27 13:35:03;;;;;;;;;;;24.80;40.50;;;;;;5042650;28;19921;-63
2022/07/27 13:37:28;;;;;;;;;;;24.90;40.50;;;;;;5037049;28;19920;-63
2022/07/27 13:39:54;;;;;;;;;;;24.90;40.20;;;;;;5052205;28;19927;-62
2022/07/27 13:42:22;;;;;;;;;;;24.90;40.50;;;;;;5032943;28;21276;-63
2022/07/27 13:44:48;;;;;;;;;;;24.90;40.40;;;;;;5043185;28;20381;-63
2022/07/27 13:47:13;;;;;;;;;;;25.00;40.20;;;;;;5045167;28;19928;-63
2022/07/27 13:49:39;;;;;;;;;;;25.00;40.30;;;;;;5041008;28;19955;-63
2022/07/27 13:52:04;;;;;;;;;;;25.00;40.20;;;;;;5043792;28;19917;-63
2022/07/27 13:54:30;;;;;;;;;;;25.10;40.20;;;;;;5050539;28;19936;-63
2022/07/27 13:56:55;;;;;;;;;;;25.10;40.10;;;;;;5050220;28;19984;-63
2022/07/27 13:59:20;;;;;;;;;;;25.20;40.20;;;;;;5049799;28;19999;-62
2022/07/27 14:01:51;;;;;;;;;;;25.20;40.20;;;;;;5049232;28;19913;-63
2022/07/27 14:04:16;;;;;;;;;;;25.20;40.20;;;;;;5049846;28;19913;-63
2022/07/27 14:06:42;;;;;;;;;;;25.20;40.30;;;;;;5047720;28;19925;-62
2022/07/27 14:09:08;;;;;;;;;;;25.10;40.20;;;;;;5060752;28;20356;-62
2022/07/27 14:11:33;;;;;;;;;;;25.20;40.30;;;;;;5047881;28;19947;-62
2022/07/27 14:13:59;;;;;;;;;;;25.20;40.40;;;;;;5031532;28;19921;-62
2022/07/27 14:16:24;;;;;;;;;;;25.10;40.40;;;;;;5049676;28;19921;-63